• location
  • image
mod_vvisit_countermod_vvisit_countermod_vvisit_countermod_vvisit_countermod_vvisit_countermod_vvisit_counter
mod_vvisit_counterToday472
mod_vvisit_counterYesterday604
mod_vvisit_counterThis week1076
mod_vvisit_counterLast week5830
mod_vvisit_counterThis month25784
mod_vvisit_counterLast month35742
mod_vvisit_counterAll days664142

We have: 5 guests online
Your IP: 54.81.152.30
 , 
Today: May 30, 2017
Airport

Certifications

 

DIRECTOR OF STATE FOOD AND VETERINARY SERVICE

ORDER  FOR ANIMAL FOOD MANAGEMENT SUBJECT VETERINARY APPROVAL

 



 

SIAULIAI STATE FOOD AND VETERINARY SERVICE OF STATE FOOD AND VETERINARY SERVICE

FOOD MANAGEMENT SUBJECT APPROVAL CERTIFICATE

Today

Tuesday, 30 May 2017

Weather Forecast

Siauliai °C
   

Aviation Weather Forecast

[source: ADDS]
METAR
EYSA 301220Z 09004KT 030V160 CAVOK 17/09 Q1012 BLU NOSIG =
TAF
TAF EYSA 301100Z 3012/3021 VRB05KT 9000 NSC =
SR / SS: 01:57 / 18:53 UTC (EYSA 2017-05-30)

Search

Who's Online

We have 5 guests online

tic logo en